Time;durP1;ratioP1;P1;durP2;ratioP2;P2;SDS_P1;SDS_P2;PMS_P1;PMS_P2;Temp;Humidity;BMP_temperature;BMP_pressure;BME280_temperature;BME280_humidity;BME280_pressure;Samples;Min_cycle;Max_cycle;Signal;HPM_P1;HPM_P2
2021/12/03 00:01:32;;;;;;;0.80;0.80;;;-0.30;99.90;;;;;;4868071;29;20056;-87
2021/12/03 00:04:02;;;;;;;0.80;0.80;;;-0.30;99.90;;;;;;4847526;29;20049;-88
2021/12/03 00:06:35;;;;;;;0.60;0.60;;;-0.30;99.90;;;;;;4834191;29;20045;-88
2021/12/03 00:09:06;;;;;;;0.70;0.70;;;-0.40;99.90;;;;;;4865747;29;20049;-88
2021/12/03 00:11:41;;;;;;;0.90;0.90;;;-0.40;99.90;;;;;;4854989;29;20052;-88
2021/12/03 00:14:14;;;;;;;0.90;0.90;;;-0.40;99.90;;;;;;4877022;29;20053;-89
2021/12/03 00:17:01;;;;;;;;;;;-0.40;99.90;;;;;;4870838;29;20510;-89
2021/12/03 00:19:32;;;;;;;0.90;0.90;;;-0.40;99.90;;;;;;4855662;29;20313;-89
2021/12/03 00:22:07;;;;;;;0.70;0.70;;;-0.50;99.90;;;;;;4869519;29;20064;-90
2021/12/03 00:24:59;;;;;;;0.90;0.90;;;-0.50;99.90;;;;;;4867886;29;20522;-89
2021/12/03 00:27:36;;;;;;;0.80;0.80;;;-0.40;99.90;;;;;;4881022;29;20064;-89
2021/12/03 00:30:13;;;;;;;1.02;1.02;;;-0.50;99.90;;;;;;4850588;29;20057;-89
2021/12/03 00:32:50;;;;;;;0.90;0.90;;;-0.70;99.90;;;;;;4865953;29;20056;-89
2021/12/03 00:35:30;;;;;;;0.80;0.80;;;-0.60;99.90;;;;;;4895055;29;20060;-89
2021/12/03 00:38:36;;;;;;;0.80;0.80;;;-0.60;99.90;;;;;;4896540;29;20053;-89
2021/12/03 00:42:01;;;;;;;0.80;0.80;;;-0.60;99.90;;;;;;4878865;29;20582;-89
2021/12/03 00:46:04;;;;;;;0.90;0.90;;;-0.50;99.90;;;;;;4862261;29;20128;-89
2021/12/03 00:49:01;;;;;;;0.90;0.90;;;-0.60;99.90;;;;;;4842843;29;20061;-89
2021/12/03 01:00:18;;;;;;;0.70;0.70;;;-0.70;99.90;;;;;;4824405;29;20577;-88
2021/12/03 01:02:46;;;;;;;1.15;1.13;;;-0.70;99.90;;;;;;4784430;29;20165;-89
2021/12/03 01:06:09;;;;;;;0.88;0.88;;;-0.70;99.90;;;;;;4828154;29;20056;-89
2021/12/03 01:08:38;;;;;;;0.82;0.82;;;-0.70;99.90;;;;;;4849620;29;20060;-89
2021/12/03 01:12:10;;;;;;;0.82;0.82;;;-0.90;99.90;;;;;;4872458;29;20554;-89
2021/12/03 01:23:39;;;;;;;0.90;0.90;;;-1.10;99.90;;;;;;4864103;29;20435;-89
2021/12/03 01:26:07;;;;;;;1.15;1.10;;;-1.00;99.90;;;;;;4833375;29;20165;-90
2021/12/03 01:28:35;;;;;;;0.90;0.90;;;-1.20;99.90;;;;;;4833304;29;20049;-89
2021/12/03 01:31:03;;;;;;;0.80;0.80;;;-1.20;99.90;;;;;;4833474;29;20575;-90
2021/12/03 01:33:31;;;;;;;0.80;0.80;;;-1.30;99.90;;;;;;4833156;29;20056;-89
2021/12/03 01:36:00;;;;;;;1.00;1.00;;;-1.30;99.90;;;;;;4833087;29;20057;-90
2021/12/03 01:38:28;;;;;;;0.90;0.90;;;-1.20;99.90;;;;;;4848394;29;20057;-89
2021/12/03 01:40:55;;;;;;;0.90;0.90;;;-1.30;99.90;;;;;;4848103;29;20056;-89
2021/12/03 01:43:25;;;;;;;0.90;0.90;;;-1.30;99.90;;;;;;4847942;29;20056;-89
2021/12/03 01:45:57;;;;;;;0.63;0.63;;;-1.50;99.90;;;;;;4829745;29;20064;-90
2021/12/03 01:48:25;;;;;;;0.70;0.70;;;-1.50;99.90;;;;;;4815217;29;20061;-90
2021/12/03 01:50:54;;;;;;;0.90;0.90;;;-1.60;99.90;;;;;;4844901;29;20066;-90
2021/12/03 01:53:25;;;;;;;1.02;1.02;;;-1.60;99.90;;;;;;4829531;29;20420;-90
2021/12/03 01:55:59;;;;;;;0.90;0.90;;;-1.50;99.90;;;;;;4829420;29;20049;-89
2021/12/03 01:58:27;;;;;;;0.80;0.80;;;-1.30;99.90;;;;;;4828910;29;20068;-90
2021/12/03 02:01:02;;;;;;;0.93;0.93;;;-1.50;99.90;;;;;;4829489;29;20508;-89
2021/12/03 02:03:32;;;;;;;0.80;0.80;;;-1.30;99.90;;;;;;4799268;29;20061;-90
2021/12/03 02:06:02;;;;;;;1.00;1.00;;;-1.30;99.90;;;;;;4844399;29;20053;-90
2021/12/03 02:08:30;;;;;;;0.95;0.95;;;-1.40;99.90;;;;;;4829099;29;20061;-89
2021/12/03 02:10:58;;;;;;;0.90;0.90;;;-1.30;99.90;;;;;;4829189;29;20054;-89
2021/12/03 02:13:26;;;;;;;0.88;0.88;;;-1.40;99.90;;;;;;4844428;29;20064;-90
2021/12/03 02:15:54;;;;;;;1.00;1.00;;;-1.50;99.90;;;;;;4829630;29;20060;-89
2021/12/03 02:18:23;;;;;;;0.90;0.90;;;-1.40;99.90;;;;;;4849768;29;20065;-89
2021/12/03 02:21:00;;;;;;;1.00;1.00;;;-1.40;99.90;;;;;;4814339;29;20057;-90
2021/12/03 02:23:29;;;;;;;0.90;0.90;;;-1.60;99.90;;;;;;4829428;29;20061;-90
2021/12/03 02:25:56;;;;;;;0.80;0.80;;;-1.50;99.90;;;;;;4829030;29;20061;-90
2021/12/03 02:28:27;;;;;;;1.10;1.10;;;-1.60;99.90;;;;;;4818760;29;20033;-91
2021/12/03 02:30:56;;;;;;;1.10;1.10;;;-1.50;99.90;;;;;;4852917;29;20064;-90
2021/12/03 02:33:24;;;;;;;0.93;0.93;;;-1.50;99.90;;;;;;4852299;29;20064;-90
2021/12/03 02:35:53;;;;;;;0.80;0.80;;;-1.40;99.90;;;;;;4832312;29;20060;-90
2021/12/03 02:38:22;;;;;;;12.60;2.15;;;-1.30;99.90;;;;;;4847249;29;20064;-89
2021/12/03 02:40:51;;;;;;;1.55;1.40;;;-1.40;99.90;;;;;;4844354;29;20424;-89
2021/12/03 02:43:20;;;;;;;1.00;1.00;;;-1.40;99.90;;;;;;4814843;29;20548;-90
2021/12/03 02:45:50;;;;;;;1.02;1.02;;;-1.30;99.90;;;;;;4814532;29;20575;-90
2021/12/03 02:48:20;;;;;;;0.90;0.90;;;-1.30;99.90;;;;;;4828187;29;20053;-90
2021/12/03 02:50:50;;;;;;;1.10;1.10;;;-1.40;99.90;;;;;;4832473;29;20057;-90
2021/12/03 02:53:19;;;;;;;1.00;1.00;;;-1.30;99.90;;;;;;4831651;29;20947;-90
2021/12/03 02:55:47;;;;;;;0.80;0.80;;;-1.30;99.90;;;;;;4838118;29;20056;-92
2021/12/03 02:58:31;;;;;;;0.85;0.85;;;-1.40;99.90;;;;;;4872816;29;20052;-91
2021/12/03 03:01:13;;;;;;;1.20;1.20;;;-1.40;99.90;;;;;;4858329;29;20057;-91
2021/12/03 03:08:40;;;;;;;0.90;0.90;;;-1.30;99.90;;;;;;4868652;29;20052;-89
2021/12/03 03:11:23;;;;;;;0.90;0.90;;;-1.30;99.90;;;;;;4866453;29;20053;-90
2021/12/03 03:14:26;;;;;;;1.10;1.10;;;-1.20;99.90;;;;;;4861235;29;20056;-91
2021/12/03 03:17:34;;;;;;;0.70;0.70;;;-1.20;99.90;;;;;;4854036;29;20049;-90
2021/12/03 03:27:52;;;;;;;0.80;0.80;;;-1.30;99.90;;;;;;4864036;29;20053;-88
2021/12/03 03:30:21;;;;;;;0.80;0.80;;;-1.50;99.90;;;;;;4865142;29;20053;-89
2021/12/03 03:37:42;;;;;;;1.00;1.00;;;-1.20;99.90;;;;;;4888151;29;20060;-90
2021/12/03 03:44:55;;;;;;;1.00;1.00;;;-1.30;99.90;;;;;;4828038;29;20041;-89
2021/12/03 03:48:24;;;;;;;0.95;0.95;;;-1.30;99.90;;;;;;4804083;29;20059;-91
2021/12/03 03:51:37;;;;;;;0.80;0.80;;;-1.20;99.90;;;;;;4791100;29;20046;-88
2021/12/03 03:54:05;;;;;;;1.85;1.55;;;-1.10;99.90;;;;;;4820578;29;20064;-89
2021/12/03 03:56:36;;;;;;;1.45;1.45;;;-1.10;99.90;;;;;;4874510;29;20053;-90
2021/12/03 03:59:05;;;;;;;1.17;1.17;;;-1.10;99.90;;;;;;4864949;29;20053;-88
2021/12/03 04:01:33;;;;;;;1.00;1.00;;;-1.20;99.90;;;;;;4849220;29;20061;-89
2021/12/03 04:04:03;;;;;;;0.90;0.90;;;-1.20;99.90;;;;;;4864807;29;20072;-90
2021/12/03 04:06:31;;;;;;;0.77;0.77;;;-1.20;99.90;;;;;;4864047;29;20053;-90
2021/12/03 04:08:59;;;;;;;13.48;2.00;;;-1.10;99.90;;;;;;4848256;29;20508;-91
2021/12/03 04:11:26;;;;;;;1.00;1.00;;;-1.20;99.90;;;;;;4833820;29;20049;-91
2021/12/03 04:13:54;;;;;;;0.90;0.90;;;-1.30;99.90;;;;;;4860613;29;20049;-90
2021/12/03 04:16:22;;;;;;;1.70;1.63;;;-1.20;99.90;;;;;;4839760;29;20061;-92
2021/12/03 04:18:50;;;;;;;1.10;1.10;;;-1.10;99.90;;;;;;4848630;29;20065;-89
2021/12/03 04:21:18;;;;;;;1.17;1.17;;;-1.20;99.90;;;;;;4864135;29;20053;-91
2021/12/03 04:24:01;;;;;;;1.20;1.20;;;-1.10;99.90;;;;;;4861654;29;20127;-90
2021/12/03 04:26:40;;;;;;;4.78;3.42;;;-1.10;99.90;;;;;;4869599;29;20061;-89
2021/12/03 04:29:11;;;;;;;2.47;2.38;;;-1.20;99.90;;;;;;4851061;29;20053;-89
2021/12/03 04:31:39;;;;;;;1.30;1.30;;;-1.20;99.90;;;;;;4849200;29;20065;-88
2021/12/03 04:34:07;;;;;;;1.80;1.70;;;-1.20;99.90;;;;;;4864571;29;20054;-90
2021/12/03 04:36:38;;;;;;;1.92;1.83;;;-1.20;99.90;;;;;;4864523;29;20424;-90
2021/12/03 04:39:06;;;;;;;2.58;2.47;;;-1.30;99.90;;;;;;4868396;29;20078;-89
2021/12/03 04:41:33;;;;;;;3.03;2.28;;;-1.30;99.90;;;;;;4881317;29;20060;-90
2021/12/03 04:44:01;;;;;;;1.08;1.08;;;-1.30;99.90;;;;;;4847501;29;20057;-88
2021/12/03 04:46:29;;;;;;;2.67;2.47;;;-1.30;99.90;;;;;;4821395;29;20515;-88
2021/12/03 04:48:57;;;;;;;1.77;1.77;;;-1.40;99.90;;;;;;4849825;29;20511;-88
2021/12/03 04:51:25;;;;;;;2.45;2.25;;;-1.40;99.90;;;;;;4819752;29;20056;-89
2021/12/03 04:53:53;;;;;;;2.63;2.40;;;-1.40;99.90;;;;;;4835902;29;20054;-90
2021/12/03 04:56:21;;;;;;;1.55;1.45;;;-1.50;99.90;;;;;;4850214;29;20060;-90
2021/12/03 04:58:49;;;;;;;0.85;0.85;;;-1.40;99.90;;;;;;4872863;29;20059;-89
2021/12/03 05:01:17;;;;;;;0.80;0.80;;;-1.50;99.90;;;;;;4875694;29;20061;-90
2021/12/03 05:03:45;;;;;;;1.13;1.13;;;-1.40;99.90;;;;;;4885749;29;20052;-90
2021/12/03 05:06:28;;;;;;;2.00;1.92;;;-1.50;99.90;;;;;;4876884;29;20060;-89
2021/12/03 05:08:56;;;;;;;16.33;10.98;;;-1.50;99.90;;;;;;4871403;29;20064;-88
2021/12/03 05:11:24;;;;;;;8.60;7.82;;;-1.60;99.90;;;;;;4873273;29;20494;-90
2021/12/03 05:13:55;;;;;;;6.05;4.50;;;-1.60;99.90;;;;;;4885347;29;20045;-88
2021/12/03 05:16:23;;;;;;;12.50;8.63;;;-1.60;99.90;;;;;;4887394;29;20049;-90
2021/12/03 05:18:52;;;;;;;13.63;8.45;;;-1.60;99.90;;;;;;4867606;29;20075;-88
2021/12/03 05:21:20;;;;;;;8.80;5.47;;;-1.70;99.90;;;;;;4883463;29;20064;-89
2021/12/03 05:23:47;;;;;;;2.58;2.38;;;-1.60;99.90;;;;;;4882864;29;20422;-86
2021/12/03 05:26:15;;;;;;;2.15;2.05;;;-1.60;99.90;;;;;;4882583;29;20068;-89
2021/12/03 05:28:44;;;;;;;3.30;2.45;;;-1.70;99.90;;;;;;4883363;29;20052;-90
2021/12/03 05:31:12;;;;;;;7.15;5.13;;;-1.70;99.90;;;;;;4883557;29;20063;-89
2021/12/03 05:33:40;;;;;;;12.93;6.30;;;-1.90;99.90;;;;;;4882795;29;20059;-89
2021/12/03 05:36:07;;;;;;;15.43;6.70;;;-1.80;99.90;;;;;;4883259;29;20052;-89
2021/12/03 05:38:35;;;;;;;9.85;4.68;;;-1.80;99.90;;;;;;4883127;29;20052;-89
2021/12/03 05:41:04;;;;;;;4.43;3.03;;;-1.80;99.90;;;;;;4853090;29;20057;-89
2021/12/03 05:43:31;;;;;;;2.90;2.25;;;-1.80;99.90;;;;;;4885434;29;20055;-89
2021/12/03 05:45:59;;;;;;;2.15;2.05;;;-1.80;99.90;;;;;;4886468;29;20064;-89
2021/12/03 05:48:27;;;;;;;2.40;2.20;;;-1.80;99.90;;;;;;4882669;29;20061;-89
2021/12/03 05:50:55;;;;;;;2.13;2.03;;;-1.80;99.90;;;;;;4867159;29;20048;-89
2021/12/03 05:53:23;;;;;;;3.40;2.30;;;-1.80;99.90;;;;;;4882620;29;20060;-89
2021/12/03 05:55:50;;;;;;;1.45;1.45;;;-1.80;99.90;;;;;;4909946;23;20420;-90
2021/12/03 05:58:20;;;;;;;2.47;1.45;;;-1.70;99.90;;;;;;4863246;29;20400;-89
2021/12/03 06:00:51;;;;;;;1.63;1.52;;;-1.60;99.90;;;;;;4863274;29;20077;-90
2021/12/03 06:03:43;;;;;;;1.48;1.48;;;-1.60;99.90;;;;;;4871968;29;20051;-94
2021/12/03 06:06:11;;;;;;;1.20;1.20;;;-1.50;99.90;;;;;;4889942;29;20057;-94
2021/12/03 06:08:38;;;;;;;2.40;1.83;;;-1.60;99.90;;;;;;4867267;29;20033;-93
2021/12/03 06:11:06;;;;;;;1.20;1.20;;;-1.50;99.90;;;;;;4849531;29;20535;-90
2021/12/03 06:13:39;;;;;;;2.78;1.73;;;-1.40;99.90;;;;;;4878326;29;20049;-90
2021/12/03 06:16:09;;;;;;;0.93;0.93;;;-1.30;99.90;;;;;;4879910;29;20053;-88
2021/12/03 06:18:38;;;;;;;1.10;1.10;;;-1.40;99.90;;;;;;4863973;29;20084;-90
2021/12/03 06:21:07;;;;;;;1.10;1.10;;;-1.40;99.90;;;;;;4847845;29;20072;-90
2021/12/03 06:23:35;;;;;;;1.20;1.20;;;-1.40;99.90;;;;;;4879628;29;20060;-90
2021/12/03 06:26:04;;;;;;;0.70;0.70;;;-1.40;99.90;;;;;;4850937;29;20053;-89
2021/12/03 06:28:33;;;;;;;0.90;0.90;;;-1.50;99.90;;;;;;4849199;29;20057;-89
2021/12/03 06:31:01;;;;;;;0.95;0.95;;;-1.50;99.90;;;;;;4866711;29;20048;-90
2021/12/03 06:33:29;;;;;;;0.77;0.77;;;-1.50;99.90;;;;;;4878333;29;20290;-90
2021/12/03 06:35:57;;;;;;;0.80;0.80;;;-1.40;99.90;;;;;;4847321;29;20053;-89
2021/12/03 06:38:25;;;;;;;0.90;0.90;;;-1.50;99.90;;;;;;4879801;29;20045;-90
2021/12/03 06:40:55;;;;;;;0.73;0.73;;;-1.60;99.90;;;;;;4878393;29;20052;-90
2021/12/03 06:43:23;;;;;;;1.20;1.20;;;-1.60;99.90;;;;;;4877843;29;20060;-91
2021/12/03 06:45:52;;;;;;;0.95;0.95;;;-1.60;99.90;;;;;;4877186;29;20049;-90
2021/12/03 06:48:20;;;;;;;1.00;1.00;;;-1.50;99.90;;;;;;4880306;29;20049;-90
2021/12/03 06:50:49;;;;;;;0.90;0.90;;;-1.70;99.90;;;;;;4863882;29;20045;-90
2021/12/03 06:53:20;;;;;;;1.00;1.00;;;-1.70;99.90;;;;;;4863882;29;20531;-90
2021/12/03 06:55:58;;;;;;;0.85;0.85;;;-1.70;99.90;;;;;;4879000;29;20427;-90
2021/12/03 06:58:26;;;;;;;1.42;1.33;;;-1.70;99.90;;;;;;4878879;29;20053;-90
2021/12/03 07:00:56;;;;;;;0.82;0.82;;;-1.90;99.90;;;;;;4879012;29;20057;-90
2021/12/03 07:03:24;;;;;;;1.20;1.20;;;-1.90;99.90;;;;;;4848395;29;20063;-90
2021/12/03 07:05:52;;;;;;;1.10;1.10;;;-1.90;99.90;;;;;;4878259;29;20045;-90
2021/12/03 07:08:20;;;;;;;1.00;1.00;;;-2.00;99.90;;;;;;4863369;29;20416;-90
2021/12/03 07:10:48;;;;;;;1.10;1.10;;;-2.00;99.90;;;;;;4878354;29;20527;-90
2021/12/03 07:13:15;;;;;;;5.40;1.50;;;-2.10;99.90;;;;;;4877431;29;20452;-90
2021/12/03 07:15:43;;;;;;;1.02;1.02;;;-2.10;99.90;;;;;;4876997;29;20041;-90
2021/12/03 07:18:11;;;;;;;0.90;0.90;;;-2.00;99.90;;;;;;4846595;29;20073;-90
2021/12/03 07:20:38;;;;;;;0.93;0.93;;;-2.00;99.90;;;;;;4877967;29;20053;-89
2021/12/03 07:23:06;;;;;;;1.00;1.00;;;-2.00;99.90;;;;;;4879050;29;20511;-90
2021/12/03 07:25:34;;;;;;;1.20;1.20;;;-2.10;99.90;;;;;;4861668;29;20060;-90
2021/12/03 07:28:02;;;;;;;1.02;1.02;;;-2.00;99.90;;;;;;4877639;29;20083;-90
2021/12/03 07:30:31;;;;;;;1.00;1.00;;;-2.10;99.90;;;;;;4846967;29;20416;-90
2021/12/03 07:32:59;;;;;;;1.00;1.00;;;-2.10;99.90;;;;;;4862545;29;20045;-90
2021/12/03 07:35:27;;;;;;;1.00;1.00;;;-2.20;99.90;;;;;;4848643;29;20053;-89
2021/12/03 07:37:55;;;;;;;2.92;2.80;;;-2.20;99.90;;;;;;4877897;29;20077;-90
2021/12/03 07:40:22;;;;;;;2.30;1.42;;;-2.10;99.90;;;;;;4862277;29;20495;-91
2021/12/03 07:42:50;;;;;;;1.10;1.10;;;-2.10;99.90;;;;;;4861809;29;20427;-90
2021/12/03 07:45:18;;;;;;;1.85;1.75;;;-2.00;99.90;;;;;;4878199;29;20060;-91
2021/12/03 07:47:46;;;;;;;1.42;1.42;;;-2.10;99.90;;;;;;4846811;29;20061;-90
2021/12/03 07:50:14;;;;;;;11.07;9.77;;;-2.00;99.90;;;;;;4877715;29;20516;-89
2021/12/03 07:52:42;;;;;;;2.85;1.42;;;-1.90;99.90;;;;;;4862188;29;20049;-90
2021/12/03 07:55:10;;;;;;;1.23;1.23;;;-1.90;99.90;;;;;;4861198;29;20057;-89
2021/12/03 07:57:38;;;;;;;1.27;1.27;;;-1.90;99.90;;;;;;4881263;29;20415;-90
2021/12/03 08:00:07;;;;;;;3.88;2.65;;;-2.00;99.90;;;;;;4850275;29;20431;-90
2021/12/03 08:02:41;;;;;;;1.60;1.60;;;-1.80;99.90;;;;;;4881388;29;20508;-90
2021/12/03 08:05:09;;;;;;;1.60;1.60;;;-1.70;99.90;;;;;;4880721;29;20053;-90
2021/12/03 08:07:37;;;;;;;1.50;1.50;;;-1.70;99.90;;;;;;4850966;29;20061;-89
2021/12/03 08:10:06;;;;;;;6.53;2.05;;;-1.70;99.90;;;;;;4880793;29;20053;-90
2021/12/03 08:12:33;;;;;;;1.38;1.13;;;-1.70;99.90;;;;;;4880829;29;20056;-90
2021/12/03 08:15:01;;;;;;;1.50;1.40;;;-1.80;99.90;;;;;;4880468;29;20424;-89
2021/12/03 08:17:29;;;;;;;1.83;1.73;;;-1.80;99.90;;;;;;4864499;29;20053;-91
2021/12/03 08:19:56;;;;;;;1.55;1.55;;;-2.20;99.90;;;;;;4864892;29;20061;-90
2021/12/03 08:22:24;;;;;;;1.65;1.65;;;-2.30;99.90;;;;;;4880548;29;20048;-90
2021/12/03 08:24:52;;;;;;;2.58;2.47;;;-2.40;99.90;;;;;;4849863;29;20053;-90
2021/12/03 08:27:20;;;;;;;1.83;1.77;;;-2.40;99.90;;;;;;4880142;29;20411;-90
2021/12/03 08:29:48;;;;;;;5.38;3.67;;;-2.50;99.90;;;;;;4880546;29;20053;-90
2021/12/03 08:32:15;;;;;;;2.15;2.05;;;-2.40;99.90;;;;;;4880305;29;20064;-89
2021/12/03 08:34:43;;;;;;;1.92;1.58;;;-2.50;99.90;;;;;;4849598;29;20060;-90
2021/12/03 08:37:11;;;;;;;2.10;2.00;;;-2.30;99.90;;;;;;4865132;29;20045;-90
2021/12/03 08:39:39;;;;;;;1.50;1.50;;;-2.20;99.90;;;;;;4865618;29;20420;-90
2021/12/03 08:42:09;;;;;;;1.20;1.20;;;-2.10;99.90;;;;;;4882116;29;20052;-90
2021/12/03 08:44:37;;;;;;;2.50;2.22;;;-2.00;99.90;;;;;;4879800;29;20057;-90
2021/12/03 08:47:06;;;;;;;1.50;1.42;;;-1.90;99.90;;;;;;4881492;29;20510;-90
2021/12/03 08:54:51;;;;;;;1.42;1.42;;;-1.70;99.90;;;;;;4880481;29;20412;-90
2021/12/03 08:57:26;;;;;;;1.20;1.20;;;-1.60;99.90;;;;;;4879987;29;20045;-90
2021/12/03 08:59:56;;;;;;;2.25;1.10;;;-1.50;99.90;;;;;;4864312;29;20048;-90
2021/12/03 09:02:24;;;;;;;1.30;1.30;;;-1.30;99.90;;;;;;4892502;29;20068;-90
2021/12/03 09:04:52;;;;;;;1.15;1.15;;;-1.40;99.90;;;;;;4866317;29;20061;-90
2021/12/03 09:07:19;;;;;;;1.42;1.42;;;-1.40;99.90;;;;;;4878852;29;20053;-90
2021/12/03 09:09:47;;;;;;;1.85;1.65;;;-1.30;99.90;;;;;;4879248;29;20060;-89
2021/12/03 09:12:15;;;;;;;1.33;1.20;;;-1.20;99.90;;;;;;4879326;29;20550;-89
2021/12/03 09:14:52;;;;;;;1.20;1.20;;;-1.20;99.90;;;;;;4864315;29;20232;-90
2021/12/03 09:22:39;;;;;;;1.20;1.20;;;-1.00;99.90;;;;;;4885765;29;20057;-90
2021/12/03 09:25:12;;;;;;;0.80;0.80;;;-1.00;99.90;;;;;;4900679;29;20059;-90
2021/12/03 09:27:39;;;;;;;1.13;1.13;;;-1.00;99.90;;;;;;4902263;29;20041;-89
2021/12/03 09:30:13;;;;;;;1.00;1.00;;;-0.90;99.90;;;;;;4902570;29;20049;-89
2021/12/03 09:32:46;;;;;;;0.80;0.80;;;-0.90;99.90;;;;;;4903168;29;20043;-89
2021/12/03 09:35:14;;;;;;;1.00;1.00;;;-0.80;99.90;;;;;;4871745;29;20041;-91
2021/12/03 09:37:42;;;;;;;0.80;0.80;;;-0.80;99.90;;;;;;4872479;29;20068;-90
2021/12/03 09:40:19;;;;;;;0.82;0.82;;;-0.80;99.90;;;;;;4887332;29;20060;-89
2021/12/03 09:42:47;;;;;;;0.98;0.93;;;-0.80;99.90;;;;;;4872358;29;20048;-89
2021/12/03 09:45:15;;;;;;;0.95;0.95;;;-0.70;99.90;;;;;;4872461;29;20064;-89
2021/12/03 09:47:43;;;;;;;1.65;1.55;;;-0.70;99.90;;;;;;4886912;29;20063;-89
2021/12/03 09:50:14;;;;;;;1.10;1.10;;;-0.70;99.90;;;;;;4871610;29;20045;-89
2021/12/03 09:55:15;;;;;;;2.20;1.88;;;-0.90;99.90;;;;;;4901337;29;20041;-90
2021/12/03 10:03:14;;;;;;;0.93;0.93;;;0.80;99.90;;;;;;4898784;29;20067;-89
2021/12/03 10:14:42;;;;;;;2.20;1.90;;;2.60;99.90;;;;;;4883133;29;20041;-89
2021/12/03 10:30:40;;;;;;;1.02;1.02;;;3.60;96.20;;;;;;4892356;29;20053;-89
2021/12/03 10:36:16;;;;;;;0.90;0.90;;;3.70;92.50;;;;;;4881750;29;20064;-89
2021/12/03 11:45:20;;;;;;;10.23;1.20;;;4.10;89.30;;;;;;4879435;29;20049;-87
2021/12/03 11:49:15;;;;;;;0.60;0.60;;;4.80;89.50;;;;;;4877122;29;20416;-87
2021/12/03 12:08:32;;;;;;;0.80;0.80;;;3.10;88.80;;;;;;4862741;29;20057;-87
2021/12/03 13:31:59;;;;;;;;;;;-0.60;95.90;;;;;;4823899;29;20158;-88
2021/12/03 14:31:22;;;;;;;1.35;1.35;;;-2.70;99.90;;;;;;4864971;29;20050;-89
2021/12/03 14:51:58;;;;;;;1.10;1.10;;;-3.20;99.90;;;;;;4847040;29;20057;-91
2021/12/03 14:57:19;;;;;;;1.25;1.25;;;-3.20;99.90;;;;;;4841655;29;20292;-90
2021/12/03 15:00:10;;;;;;;1.20;1.20;;;-3.30;99.90;;;;;;4850305;29;20049;-89
2021/12/03 15:03:14;;;;;;;0.88;0.88;;;-3.40;99.90;;;;;;4847019;29;20061;-89
2021/12/03 15:08:53;;;;;;;1.15;1.15;;;-3.40;99.90;;;;;;4803286;29;20061;-90
2021/12/03 15:28:35;;;;;;;1.02;1.02;;;-3.90;99.90;;;;;;4841852;29;20509;-91
2021/12/03 15:34:21;;;;;;;2.75;2.55;;;-3.90;99.90;;;;;;4862100;29;20073;-91
2021/12/03 15:37:08;;;;;;;1.10;1.10;;;-4.00;99.90;;;;;;4842935;29;20057;-90
2021/12/03 16:04:35;;;;;;;1.67;1.65;;;-5.00;99.90;;;;;;4857297;29;20050;-90
2021/12/03 16:10:09;;;;;;;1.35;1.35;;;-4.90;99.90;;;;;;4854485;29;20057;-90
2021/12/03 16:12:51;;;;;;;1.10;1.10;;;-4.90;99.90;;;;;;4852267;29;20050;-89
2021/12/03 16:46:37;;;;;;;1.08;1.08;;;-5.50;99.90;;;;;;4864844;29;20428;-90
2021/12/03 16:51:53;;;;;;;1.40;1.40;;;-5.90;99.90;;;;;;4863131;29;20461;-91
2021/12/03 16:54:45;;;;;;;14.35;3.15;;;-6.00;99.90;;;;;;4860573;29;20049;-91
2021/12/03 16:57:14;;;;;;;26.90;3.53;;;-5.70;99.90;;;;;;4843580;29;20049;-91
2021/12/03 16:59:45;;;;;;;5.05;4.65;;;-5.90;99.90;;;;;;4848564;29;20053;-90
2021/12/03 17:02:20;;;;;;;1.98;1.88;;;-6.10;99.90;;;;;;4854649;29;20448;-92
2021/12/03 17:11:07;;;;;;;3.30;3.00;;;-6.70;99.90;;;;;;4864904;29;20059;-90
2021/12/03 17:51:45;;;;;;;1.10;1.10;;;-7.40;99.90;;;;;;4869564;29;20048;-94
2021/12/03 17:54:55;;;;;;;2.25;2.08;;;-7.40;99.90;;;;;;4871104;29;20068;-91
2021/12/03 17:59:58;;;;;;;2.58;2.47;;;-7.20;99.90;;;;;;4875697;29;20527;-92
2021/12/03 18:02:37;;;;;;;2.38;2.28;;;-7.50;99.90;;;;;;4844577;29;20053;-91
2021/12/03 18:05:23;;;;;;;1.95;1.90;;;-7.60;99.90;;;;;;4855211;29;20064;-91
2021/12/03 18:55:05;;;;;;;1.40;1.40;;;-8.40;99.90;;;;;;4873872;29;20055;-90
2021/12/03 18:57:40;;;;;;;1.15;1.15;;;-8.40;99.90;;;;;;4858778;29;20038;-91
2021/12/03 19:00:18;;;;;;;1.80;1.80;;;-8.50;99.90;;;;;;4853305;29;20040;-92
2021/12/03 19:02:54;;;;;;;1.00;1.00;;;-8.40;99.90;;;;;;4884216;29;20041;-91
2021/12/03 19:08:15;;;;;;;2.40;2.30;;;-8.70;99.90;;;;;;4868239;29;20071;-94
2021/12/03 19:10:46;;;;;;;2.05;1.70;;;-8.60;99.90;;;;;;4849183;29;20056;-92
2021/12/03 19:13:26;;;;;;;2.55;2.33;;;-8.70;99.90;;;;;;4850391;29;20058;-92
2021/12/03 19:16:02;;;;;;;1.63;1.63;;;-8.80;99.90;;;;;;4850412;29;20051;-91
2021/12/03 19:18:44;;;;;;;1.30;1.30;;;-8.70;99.90;;;;;;4863647;29;20053;-93
2021/12/03 19:21:18;;;;;;;4.80;1.67;;;-8.70;99.90;;;;;;4847086;29;20064;-91
2021/12/03 19:23:48;;;;;;;1.88;1.77;;;-8.80;99.90;;;;;;4838378;29;20069;-91
2021/12/03 19:26:18;;;;;;;1.50;1.50;;;-8.70;99.90;;;;;;4847753;29;20055;-91
2021/12/03 19:28:49;;;;;;;1.83;1.73;;;-8.60;99.90;;;;;;4844098;29;20057;-91
2021/12/03 19:31:24;;;;;;;1.20;1.20;;;-8.60;99.90;;;;;;4823808;29;20500;-92
2021/12/03 19:33:56;;;;;;;1.00;1.00;;;-8.80;99.90;;;;;;4857767;29;20526;-91
2021/12/03 19:36:38;;;;;;;2.72;2.50;;;-9.00;99.90;;;;;;4840229;29;20058;-91
2021/12/03 19:39:14;;;;;;;2.53;2.42;;;-8.80;99.90;;;;;;4855086;29;20058;-91
2021/12/03 19:42:12;;;;;;;1.40;1.40;;;-8.70;99.90;;;;;;4854316;29;20061;-91
2021/12/03 19:47:14;;;;;;;1.77;1.67;;;-8.40;99.90;;;;;;4853351;29;20045;-92
2021/12/03 19:49:49;;;;;;;2.08;1.98;;;-8.70;99.90;;;;;;4853560;29;20140;-91
2021/12/03 19:52:26;;;;;;;4.88;2.17;;;-8.60;99.90;;;;;;4832549;29;20505;-91
2021/12/03 19:54:57;;;;;;;1.13;1.13;;;-8.60;99.90;;;;;;4828676;29;20049;-91
2021/12/03 19:57:25;;;;;;;9.50;3.42;;;-8.60;99.90;;;;;;4836440;29;20066;-92
2021/12/03 19:59:53;;;;;;;1.20;1.20;;;-8.70;99.90;;;;;;4850521;29;20072;-91
2021/12/03 20:02:21;;;;;;;1.10;1.10;;;-9.20;99.90;;;;;;4836353;29;20421;-91
2021/12/03 20:04:49;;;;;;;1.20;1.20;;;-9.40;99.90;;;;;;4850130;29;20061;-91
2021/12/03 20:07:17;;;;;;;1.20;1.20;;;-9.60;99.90;;;;;;4834490;29;20448;-91
2021/12/03 20:09:56;;;;;;;1.90;1.90;;;-9.50;99.90;;;;;;4851012;29;20496;-91
2021/12/03 20:12:25;;;;;;;1.38;1.38;;;-9.60;99.90;;;;;;4849940;29;20053;-92
2021/12/03 20:14:56;;;;;;;1.77;1.75;;;-9.50;99.90;;;;;;4849397;29;20551;-91
2021/12/03 20:19:55;;;;;;;1.30;1.30;;;-9.40;99.90;;;;;;4849207;29;20073;-91
2021/12/03 20:22:38;;;;;;;0.88;0.88;;;-9.40;99.90;;;;;;4837422;29;20064;-91
2021/12/03 20:27:57;;;;;;;0.95;0.95;;;-9.60;99.90;;;;;;4861261;29;20061;-91
2021/12/03 20:38:27;;;;;;;0.98;0.98;;;-9.30;99.90;;;;;;4837480;29;20049;-91
2021/12/03 20:41:01;;;;;;;1.20;1.20;;;-9.20;99.90;;;;;;4835458;29;20054;-91
2021/12/03 20:46:28;;;;;;;12.18;3.88;;;-9.20;99.90;;;;;;4850045;29;20432;-90
2021/12/03 20:49:53;;;;;;;1.17;1.17;;;-9.20;99.90;;;;;;4853189;29;20060;-92
2021/12/03 20:54:41;;;;;;;1.30;1.30;;;-9.60;99.90;;;;;;4851740;29;20412;-91
2021/12/03 20:57:45;;;;;;;1.75;1.70;;;-9.40;99.90;;;;;;4834182;29;20053;-90
2021/12/03 21:11:16;;;;;;;1.30;1.30;;;-9.60;99.90;;;;;;4853732;29;20053;-91
2021/12/03 21:13:46;;;;;;;1.50;1.50;;;-9.70;99.90;;;;;;4849577;29;20069;-91
2021/12/03 21:22:05;;;;;;;1.00;1.00;;;-9.60;99.90;;;;;;4831192;29;20057;-89
2021/12/03 21:24:37;;;;;;;1.30;1.30;;;-9.80;99.90;;;;;;4815798;29;20058;-91
2021/12/03 21:27:19;;;;;;;1.30;1.30;;;-9.80;99.90;;;;;;4842461;29;20053;-91
2021/12/03 21:30:01;;;;;;;1.30;1.30;;;-9.70;99.90;;;;;;4835734;29;20064;-89
2021/12/03 21:32:42;;;;;;;1.30;1.30;;;-9.70;99.90;;;;;;4850788;29;20053;-89
2021/12/03 21:40:56;;;;;;;1.38;1.38;;;-9.80;99.90;;;;;;4865463;29;20054;-90
2021/12/03 21:43:36;;;;;;;1.35;1.35;;;-9.80;99.90;;;;;;4855951;29;20065;-89
2021/12/03 21:46:12;;;;;;;2.53;2.42;;;-9.80;99.90;;;;;;4862669;29;20061;-89
2021/12/03 21:48:55;;;;;;;2.15;2.05;;;-9.70;99.90;;;;;;4880016;29;20132;-92
2021/12/03 21:51:31;;;;;;;1.45;1.45;;;-9.60;99.90;;;;;;4870125;29;20038;-92
2021/12/03 21:57:08;;;;;;;2.35;2.05;;;-9.80;99.90;;;;;;5595176;23;20037;-90
2021/12/03 21:59:39;;;;;;;1.30;1.30;;;-9.90;99.90;;;;;;4889149;29;20033;-92
2021/12/03 22:02:12;;;;;;;1.10;1.10;;;-9.80;99.90;;;;;;4888891;29;20047;-91
2021/12/03 22:23:47;;;;;;;1.38;1.38;;;-9.90;99.90;;;;;;5918033;23;20028;-87
2021/12/03 22:26:55;;;;;;;;;;;-9.80;99.90;;;;;;4821064;29;20073;-89
2021/12/03 22:29:35;;;;;;;0.93;0.93;;;-9.60;99.90;;;;;;4834059;29;19931;-88
2021/12/03 22:32:16;;;;;;;2.30;2.20;;;-9.40;99.90;;;;;;4849080;29;20057;-90
2021/12/03 22:34:50;;;;;;;1.20;1.20;;;-9.40;99.90;;;;;;4833751;29;20132;-89
2021/12/03 22:37:26;;;;;;;2.80;2.03;;;-9.60;99.90;;;;;;4832025;29;20054;-89
2021/12/03 22:40:15;;;;;;;1.10;1.10;;;-9.60;99.90;;;;;;4833494;29;20052;-89
2021/12/03 22:42:59;;;;;;;1.05;1.05;;;-9.80;99.90;;;;;;4820971;29;20491;-89
2021/12/03 22:45:37;;;;;;;1.10;1.10;;;-9.90;99.90;;;;;;4818999;29;20072;-88
2021/12/03 22:53:19;;;;;;;1.10;1.10;;;-10.00;99.90;;;;;;4862323;29;20056;-89
2021/12/03 22:55:59;;;;;;;1.00;1.00;;;-10.20;99.90;;;;;;4833739;29;20052;-89
2021/12/03 22:58:43;;;;;;;1.20;1.20;;;-10.10;99.90;;;;;;4807850;29;20427;-87
2021/12/03 23:01:18;;;;;;;1.15;1.15;;;-10.00;99.90;;;;;;4835700;29;20424;-87